sensor_id;sensor_type;location;lat;lon;timestamp;P1;durP1;ratioP1;P2;durP2;ratioP2
12076;SDS011;12420;42.676;23.262;2022-08-11T00:01:43;7.33;;;6.00;;
12076;SDS011;12420;42.676;23.262;2022-08-11T00:04:11;5.90;;;5.33;;
12076;SDS011;12420;42.676;23.262;2022-08-11T00:06:40;5.80;;;5.30;;
12076;SDS011;12420;42.676;23.262;2022-08-11T00:09:12;5.63;;;5.23;;
12076;SDS011;12420;42.676;23.262;2022-08-11T00:11:44;7.20;;;5.67;;
12076;SDS011;12420;42.676;23.262;2022-08-11T00:14:14;6.03;;;5.40;;
12076;SDS011;12420;42.676;23.262;2022-08-11T00:16:43;6.33;;;5.57;;
12076;SDS011;12420;42.676;23.262;2022-08-11T00:19:20;6.47;;;5.87;;
12076;SDS011;12420;42.676;23.262;2022-08-11T00:21:49;6.00;;;5.50;;
12076;SDS011;12420;42.676;23.262;2022-08-11T00:24:18;6.37;;;5.67;;
12076;SDS011;12420;42.676;23.262;2022-08-11T00:26:47;7.67;;;5.30;;
12076;SDS011;12420;42.676;23.262;2022-08-11T00:29:16;5.53;;;5.10;;
12076;SDS011;12420;42.676;23.262;2022-08-11T00:31:44;5.53;;;5.07;;
12076;SDS011;12420;42.676;23.262;2022-08-11T00:34:16;5.60;;;5.20;;
12076;SDS011;12420;42.676;23.262;2022-08-11T00:36:46;6.20;;;5.70;;
12076;SDS011;12420;42.676;23.262;2022-08-11T00:39:16;5.77;;;5.27;;
12076;SDS011;12420;42.676;23.262;2022-08-11T00:41:54;5.47;;;4.97;;
12076;SDS011;12420;42.676;23.262;2022-08-11T00:44:34;5.80;;;5.40;;
12076;SDS011;12420;42.676;23.262;2022-08-11T00:47:14;6.07;;;5.47;;
12076;SDS011;12420;42.676;23.262;2022-08-11T00:50:00;6.47;;;5.70;;
12076;SDS011;12420;42.676;23.262;2022-08-11T00:52:38;5.80;;;5.20;;
12076;SDS011;12420;42.676;23.262;2022-08-11T00:58:33;5.53;;;4.97;;
12076;SDS011;12420;42.676;23.262;2022-08-11T01:01:33;5.50;;;5.10;;
12076;SDS011;12420;42.676;23.262;2022-08-11T01:04:26;6.17;;;5.67;;
12076;SDS011;12420;42.676;23.262;2022-08-11T01:07:25;6.03;;;5.53;;
12076;SDS011;12420;42.676;23.262;2022-08-11T01:10:18;6.37;;;5.67;;
12076;SDS011;12420;42.676;23.262;2022-08-11T01:13:07;6.20;;;5.70;;
12076;SDS011;12420;42.676;23.262;2022-08-11T01:27:56;5.77;;;5.20;;
12076;SDS011;12420;42.676;23.262;2022-08-11T01:31:00;6.57;;;5.77;;
12076;SDS011;12420;42.676;23.262;2022-08-11T01:37:02;6.57;;;5.93;;
12076;SDS011;12420;42.676;23.262;2022-08-11T01:39:48;6.63;;;6.03;;
12076;SDS011;12420;42.676;23.262;2022-08-11T01:42:48;6.80;;;6.20;;
12076;SDS011;12420;42.676;23.262;2022-08-11T01:45:45;7.27;;;6.43;;
12076;SDS011;12420;42.676;23.262;2022-08-11T01:48:19;6.80;;;6.27;;
12076;SDS011;12420;42.676;23.262;2022-08-11T01:51:04;6.70;;;6.20;;
12076;SDS011;12420;42.676;23.262;2022-08-11T01:53:45;6.63;;;6.03;;
12076;SDS011;12420;42.676;23.262;2022-08-11T01:56:26;7.40;;;6.23;;
12076;SDS011;12420;42.676;23.262;2022-08-11T01:59:04;6.87;;;6.27;;
12076;SDS011;12420;42.676;23.262;2022-08-11T02:01:46;7.33;;;6.63;;
12076;SDS011;12420;42.676;23.262;2022-08-11T02:04:24;8.43;;;5.60;;
12076;SDS011;12420;42.676;23.262;2022-08-11T02:07:03;6.77;;;6.17;;
12076;SDS011;12420;42.676;23.262;2022-08-11T02:09:49;6.70;;;6.10;;
12076;SDS011;12420;42.676;23.262;2022-08-11T02:12:28;6.90;;;6.27;;
12076;SDS011;12420;42.676;23.262;2022-08-11T02:15:11;7.47;;;5.97;;
12076;SDS011;12420;42.676;23.262;2022-08-11T02:17:47;6.40;;;5.80;;
12076;SDS011;12420;42.676;23.262;2022-08-11T02:20:19;9.00;;;6.00;;
12076;SDS011;12420;42.676;23.262;2022-08-11T02:23:22;6.10;;;5.60;;
12076;SDS011;12420;42.676;23.262;2022-08-11T02:26:08;6.40;;;5.80;;
12076;SDS011;12420;42.676;23.262;2022-08-11T02:28:43;6.67;;;6.07;;
12076;SDS011;12420;42.676;23.262;2022-08-11T02:31:23;6.70;;;6.00;;
12076;SDS011;12420;42.676;23.262;2022-08-11T02:34:17;6.67;;;6.10;;
12076;SDS011;12420;42.676;23.262;2022-08-11T02:36:51;6.67;;;6.17;;
12076;SDS011;12420;42.676;23.262;2022-08-11T02:39:24;6.83;;;6.23;;
12076;SDS011;12420;42.676;23.262;2022-08-11T02:42:10;6.53;;;5.93;;
12076;SDS011;12420;42.676;23.262;2022-08-11T02:44:50;6.90;;;6.20;;
12076;SDS011;12420;42.676;23.262;2022-08-11T02:47:34;7.03;;;6.43;;
12076;SDS011;12420;42.676;23.262;2022-08-11T02:50:29;7.27;;;6.67;;
12076;SDS011;12420;42.676;23.262;2022-08-11T02:53:03;8.80;;;6.20;;
12076;SDS011;12420;42.676;23.262;2022-08-11T02:55:37;7.70;;;6.90;;
12076;SDS011;12420;42.676;23.262;2022-08-11T02:58:25;7.23;;;6.60;;
12076;SDS011;12420;42.676;23.262;2022-08-11T03:01:04;10.33;;;6.73;;
12076;SDS011;12420;42.676;23.262;2022-08-11T03:03:43;7.00;;;6.40;;
12076;SDS011;12420;42.676;23.262;2022-08-11T03:06:19;7.43;;;6.80;;
12076;SDS011;12420;42.676;23.262;2022-08-11T03:08:58;7.43;;;6.83;;
12076;SDS011;12420;42.676;23.262;2022-08-11T03:11:38;7.37;;;6.67;;
12076;SDS011;12420;42.676;23.262;2022-08-11T03:14:36;7.73;;;6.97;;
12076;SDS011;12420;42.676;23.262;2022-08-11T03:17:33;7.30;;;6.20;;
12076;SDS011;12420;42.676;23.262;2022-08-11T03:20:16;7.67;;;6.67;;
12076;SDS011;12420;42.676;23.262;2022-08-11T03:22:56;7.50;;;6.73;;
12076;SDS011;12420;42.676;23.262;2022-08-11T03:25:33;7.47;;;6.60;;
12076;SDS011;12420;42.676;23.262;2022-08-11T03:28:13;7.23;;;6.50;;
12076;SDS011;12420;42.676;23.262;2022-08-11T03:30:56;7.37;;;6.77;;
12076;SDS011;12420;42.676;23.262;2022-08-11T03:33:35;7.63;;;6.77;;
12076;SDS011;12420;42.676;23.262;2022-08-11T03:36:35;8.93;;;6.47;;
12076;SDS011;12420;42.676;23.262;2022-08-11T03:39:21;8.60;;;7.03;;
12076;SDS011;12420;42.676;23.262;2022-08-11T03:42:00;8.83;;;6.87;;
12076;SDS011;12420;42.676;23.262;2022-08-11T03:44:43;6.47;;;5.97;;
12076;SDS011;12420;42.676;23.262;2022-08-11T03:50:47;7.90;;;7.07;;
12076;SDS011;12420;42.676;23.262;2022-08-11T03:53:29;7.80;;;6.90;;
12076;SDS011;12420;42.676;23.262;2022-08-11T03:59:38;7.67;;;6.70;;
12076;SDS011;12420;42.676;23.262;2022-08-11T04:09:11;9.30;;;6.80;;
12076;SDS011;12420;42.676;23.262;2022-08-11T04:15:13;8.67;;;7.50;;
12076;SDS011;12420;42.676;23.262;2022-08-11T04:18:29;7.70;;;6.90;;
12076;SDS011;12420;42.676;23.262;2022-08-11T04:27:26;7.53;;;6.80;;
12076;SDS011;12420;42.676;23.262;2022-08-11T04:30:20;6.97;;;6.37;;
12076;SDS011;12420;42.676;23.262;2022-08-11T04:33:02;7.17;;;6.03;;
12076;SDS011;12420;42.676;23.262;2022-08-11T04:35:56;6.90;;;6.30;;
12076;SDS011;12420;42.676;23.262;2022-08-11T04:38:51;8.03;;;6.33;;
12076;SDS011;12420;42.676;23.262;2022-08-11T04:42:03;7.00;;;6.40;;
12076;SDS011;12420;42.676;23.262;2022-08-11T04:45:01;7.20;;;6.13;;
12076;SDS011;12420;42.676;23.262;2022-08-11T04:48:05;8.53;;;6.60;;
12076;SDS011;12420;42.676;23.262;2022-08-11T04:51:30;7.80;;;7.10;;
12076;SDS011;12420;42.676;23.262;2022-08-11T04:54:33;8.53;;;7.27;;
12076;SDS011;12420;42.676;23.262;2022-08-11T04:57:34;8.50;;;7.30;;
12076;SDS011;12420;42.676;23.262;2022-08-11T05:00:24;7.90;;;7.10;;
12076;SDS011;12420;42.676;23.262;2022-08-11T05:09:33;8.20;;;6.97;;
12076;SDS011;12420;42.676;23.262;2022-08-11T05:12:25;7.53;;;6.83;;
12076;SDS011;12420;42.676;23.262;2022-08-11T05:14:57;6.97;;;6.13;;
12076;SDS011;12420;42.676;23.262;2022-08-11T05:17:48;7.13;;;6.23;;
12076;SDS011;12420;42.676;23.262;2022-08-11T05:20:39;8.07;;;6.40;;
12076;SDS011;12420;42.676;23.262;2022-08-11T05:23:29;8.13;;;6.07;;
12076;SDS011;12420;42.676;23.262;2022-08-11T05:26:17;6.30;;;5.80;;
12076;SDS011;12420;42.676;23.262;2022-08-11T05:29:04;6.60;;;6.00;;
12076;SDS011;12420;42.676;23.262;2022-08-11T05:32:10;12.57;;;6.20;;
12076;SDS011;12420;42.676;23.262;2022-08-11T05:34:56;9.97;;;6.53;;
12076;SDS011;12420;42.676;23.262;2022-08-11T05:37:30;6.80;;;6.20;;
12076;SDS011;12420;42.676;23.262;2022-08-11T05:40:04;9.20;;;6.53;;
12076;SDS011;12420;42.676;23.262;2022-08-11T05:42:53;6.80;;;6.13;;
12076;SDS011;12420;42.676;23.262;2022-08-11T05:45:40;8.23;;;5.87;;
12076;SDS011;12420;42.676;23.262;2022-08-11T05:48:29;9.97;;;6.17;;
12076;SDS011;12420;42.676;23.262;2022-08-11T05:51:16;9.90;;;6.50;;
12076;SDS011;12420;42.676;23.262;2022-08-11T05:54:02;6.97;;;6.37;;
12076;SDS011;12420;42.676;23.262;2022-08-11T05:56:51;6.70;;;6.00;;
12076;SDS011;12420;42.676;23.262;2022-08-11T05:59:21;7.00;;;6.30;;
12076;SDS011;12420;42.676;23.262;2022-08-11T06:01:49;8.27;;;7.07;;
12076;SDS011;12420;42.676;23.262;2022-08-11T06:04:19;6.97;;;5.83;;
12076;SDS011;12420;42.676;23.262;2022-08-11T06:06:48;6.73;;;6.23;;
12076;SDS011;12420;42.676;23.262;2022-08-11T06:09:28;6.73;;;6.13;;
12076;SDS011;12420;42.676;23.262;2022-08-11T06:11:59;6.60;;;6.10;;
12076;SDS011;12420;42.676;23.262;2022-08-11T06:14:32;10.13;;;6.50;;
12076;SDS011;12420;42.676;23.262;2022-08-11T06:17:02;6.63;;;5.90;;
12076;SDS011;12420;42.676;23.262;2022-08-11T06:19:39;6.57;;;6.07;;
12076;SDS011;12420;42.676;23.262;2022-08-11T06:22:08;7.70;;;5.97;;
12076;SDS011;12420;42.676;23.262;2022-08-11T06:24:38;6.50;;;5.90;;
12076;SDS011;12420;42.676;23.262;2022-08-11T06:27:10;6.30;;;5.80;;
12076;SDS011;12420;42.676;23.262;2022-08-11T06:29:46;6.43;;;5.83;;
12076;SDS011;12420;42.676;23.262;2022-08-11T06:32:16;6.50;;;5.90;;
12076;SDS011;12420;42.676;23.262;2022-08-11T06:34:54;7.80;;;6.00;;
12076;SDS011;12420;42.676;23.262;2022-08-11T06:37:29;7.73;;;5.83;;
12076;SDS011;12420;42.676;23.262;2022-08-11T06:40:08;8.67;;;6.10;;
12076;SDS011;12420;42.676;23.262;2022-08-11T06:42:43;6.67;;;5.80;;
12076;SDS011;12420;42.676;23.262;2022-08-11T06:45:20;6.63;;;5.80;;
12076;SDS011;12420;42.676;23.262;2022-08-11T06:47:54;5.27;;;4.87;;
12076;SDS011;12420;42.676;23.262;2022-08-11T06:50:26;5.00;;;4.60;;
12076;SDS011;12420;42.676;23.262;2022-08-11T06:53:12;5.50;;;5.10;;
12076;SDS011;12420;42.676;23.262;2022-08-11T06:55:43;6.00;;;5.40;;
12076;SDS011;12420;42.676;23.262;2022-08-11T06:58:30;5.17;;;4.50;;
12076;SDS011;12420;42.676;23.262;2022-08-11T07:01:18;4.57;;;4.17;;
12076;SDS011;12420;42.676;23.262;2022-08-11T07:03:58;5.23;;;4.80;;
12076;SDS011;12420;42.676;23.262;2022-08-11T07:06:43;4.80;;;4.43;;
12076;SDS011;12420;42.676;23.262;2022-08-11T07:23:02;4.70;;;4.20;;
12076;SDS011;12420;42.676;23.262;2022-08-11T07:25:51;4.90;;;4.60;;
12076;SDS011;12420;42.676;23.262;2022-08-11T07:28:37;5.30;;;4.80;;
12076;SDS011;12420;42.676;23.262;2022-08-11T07:31:25;4.78;;;4.47;;
12076;SDS011;12420;42.676;23.262;2022-08-11T07:33:58;5.97;;;4.97;;
12076;SDS011;12420;42.676;23.262;2022-08-11T07:36:36;5.33;;;4.90;;
12076;SDS011;12420;42.676;23.262;2022-08-11T07:39:07;6.00;;;5.03;;
12076;SDS011;12420;42.676;23.262;2022-08-11T07:41:40;5.77;;;4.93;;
12076;SDS011;12420;42.676;23.262;2022-08-11T07:44:08;5.40;;;5.00;;
12076;SDS011;12420;42.676;23.262;2022-08-11T07:46:38;5.10;;;4.70;;
12076;SDS011;12420;42.676;23.262;2022-08-11T07:49:23;5.82;;;4.30;;
12076;SDS011;12420;42.676;23.262;2022-08-11T07:52:08;7.47;;;4.28;;
12076;SDS011;12420;42.676;23.262;2022-08-11T07:54:55;4.97;;;4.47;;
12076;SDS011;12420;42.676;23.262;2022-08-11T07:57:25;4.85;;;3.95;;
12076;SDS011;12420;42.676;23.262;2022-08-11T08:00:11;3.85;;;3.65;;
12076;SDS011;12420;42.676;23.262;2022-08-11T08:02:56;4.30;;;3.97;;
12076;SDS011;12420;42.676;23.262;2022-08-11T08:05:42;4.60;;;4.25;;
12076;SDS011;12420;42.676;23.262;2022-08-11T08:08:27;4.13;;;3.83;;
12076;SDS011;12420;42.676;23.262;2022-08-11T08:11:14;4.30;;;3.92;;
12076;SDS011;12420;42.676;23.262;2022-08-11T08:14:03;4.97;;;4.57;;
12076;SDS011;12420;42.676;23.262;2022-08-11T08:16:50;4.57;;;4.18;;
12076;SDS011;12420;42.676;23.262;2022-08-11T08:19:35;5.63;;;4.55;;
12076;SDS011;12420;42.676;23.262;2022-08-11T08:22:02;4.30;;;3.95;;
12076;SDS011;12420;42.676;23.262;2022-08-11T08:24:29;4.68;;;4.38;;
12076;SDS011;12420;42.676;23.262;2022-08-11T08:26:59;5.05;;;4.07;;
12076;SDS011;12420;42.676;23.262;2022-08-11T08:29:27;5.00;;;4.53;;
12076;SDS011;12420;42.676;23.262;2022-08-11T08:32:15;5.00;;;4.53;;
12076;SDS011;12420;42.676;23.262;2022-08-11T08:34:42;4.60;;;4.20;;
12076;SDS011;12420;42.676;23.262;2022-08-11T08:37:10;4.55;;;4.22;;
12076;SDS011;12420;42.676;23.262;2022-08-11T08:39:38;9.00;;;4.40;;
12076;SDS011;12420;42.676;23.262;2022-08-11T08:42:07;4.47;;;4.10;;
12076;SDS011;12420;42.676;23.262;2022-08-11T08:44:38;4.55;;;4.25;;
12076;SDS011;12420;42.676;23.262;2022-08-11T08:47:08;6.22;;;4.25;;
12076;SDS011;12420;42.676;23.262;2022-08-11T08:49:40;4.60;;;4.20;;
12076;SDS011;12420;42.676;23.262;2022-08-11T08:52:13;4.90;;;4.50;;
12076;SDS011;12420;42.676;23.262;2022-08-11T08:54:43;5.78;;;4.38;;
12076;SDS011;12420;42.676;23.262;2022-08-11T08:57:14;4.78;;;4.47;;
12076;SDS011;12420;42.676;23.262;2022-08-11T08:59:44;5.07;;;4.68;;
12076;SDS011;12420;42.676;23.262;2022-08-11T09:02:15;4.90;;;4.43;;
12076;SDS011;12420;42.676;23.262;2022-08-11T09:04:49;4.30;;;3.90;;
12076;SDS011;12420;42.676;23.262;2022-08-11T09:07:17;4.10;;;3.80;;
12076;SDS011;12420;42.676;23.262;2022-08-11T09:09:46;3.92;;;3.72;;
12076;SDS011;12420;42.676;23.262;2022-08-11T09:12:17;4.78;;;4.38;;
12076;SDS011;12420;42.676;23.262;2022-08-11T09:14:46;4.47;;;4.07;;
12076;SDS011;12420;42.676;23.262;2022-08-11T09:17:32;4.40;;;4.05;;
12076;SDS011;12420;42.676;23.262;2022-08-11T09:20:02;4.35;;;4.00;;
12076;SDS011;12420;42.676;23.262;2022-08-11T09:22:32;4.90;;;4.50;;
12076;SDS011;12420;42.676;23.262;2022-08-11T09:25:19;4.75;;;4.35;;
12076;SDS011;12420;42.676;23.262;2022-08-11T09:28:06;4.22;;;3.80;;
12076;SDS011;12420;42.676;23.262;2022-08-11T09:30:37;4.20;;;3.90;;
12076;SDS011;12420;42.676;23.262;2022-08-11T09:33:06;4.45;;;4.15;;
12076;SDS011;12420;42.676;23.262;2022-08-11T09:35:37;4.68;;;4.10;;
12076;SDS011;12420;42.676;23.262;2022-08-11T09:38:07;4.60;;;4.10;;
12076;SDS011;12420;42.676;23.262;2022-08-11T09:40:54;4.35;;;4.05;;
12076;SDS011;12420;42.676;23.262;2022-08-11T09:43:23;4.00;;;3.80;;
12076;SDS011;12420;42.676;23.262;2022-08-11T09:46:08;4.60;;;4.30;;
12076;SDS011;12420;42.676;23.262;2022-08-11T09:48:37;5.75;;;4.82;;
12076;SDS011;12420;42.676;23.262;2022-08-11T09:51:07;4.68;;;4.38;;
12076;SDS011;12420;42.676;23.262;2022-08-11T09:53:36;4.63;;;4.28;;
12076;SDS011;12420;42.676;23.262;2022-08-11T09:56:04;9.13;;;4.97;;
12076;SDS011;12420;42.676;23.262;2022-08-11T09:58:54;5.38;;;4.88;;
12076;SDS011;12420;42.676;23.262;2022-08-11T10:01:21;5.35;;;4.82;;
12076;SDS011;12420;42.676;23.262;2022-08-11T10:03:54;4.65;;;4.25;;
12076;SDS011;12420;42.676;23.262;2022-08-11T10:06:25;4.47;;;3.53;;
12076;SDS011;12420;42.676;23.262;2022-08-11T10:09:12;4.72;;;3.65;;
12076;SDS011;12420;42.676;23.262;2022-08-11T10:11:43;5.65;;;3.85;;
12076;SDS011;12420;42.676;23.262;2022-08-11T10:14:12;3.95;;;3.65;;
12076;SDS011;12420;42.676;23.262;2022-08-11T10:16:58;4.53;;;4.13;;
12076;SDS011;12420;42.676;23.262;2022-08-11T10:19:31;4.60;;;4.18;;
12076;SDS011;12420;42.676;23.262;2022-08-11T10:22:02;4.57;;;4.28;;
12076;SDS011;12420;42.676;23.262;2022-08-11T10:24:48;5.00;;;4.50;;
12076;SDS011;12420;42.676;23.262;2022-08-11T10:27:34;5.40;;;4.60;;
12076;SDS011;12420;42.676;23.262;2022-08-11T10:30:02;4.68;;;4.28;;
12076;SDS011;12420;42.676;23.262;2022-08-11T10:32:48;5.13;;;4.45;;
12076;SDS011;12420;42.676;23.262;2022-08-11T10:35:33;5.50;;;4.18;;
12076;SDS011;12420;42.676;23.262;2022-08-11T10:38:01;4.68;;;4.25;;
12076;SDS011;12420;42.676;23.262;2022-08-11T10:40:28;3.92;;;3.53;;
12076;SDS011;12420;42.676;23.262;2022-08-11T10:42:57;4.65;;;4.25;;
12076;SDS011;12420;42.676;23.262;2022-08-11T10:45:29;4.00;;;3.70;;
12076;SDS011;12420;42.676;23.262;2022-08-11T10:48:15;4.05;;;3.60;;
12076;SDS011;12420;42.676;23.262;2022-08-11T10:50:45;5.10;;;3.65;;
12076;SDS011;12420;42.676;23.262;2022-08-11T10:53:30;3.95;;;3.70;;
12076;SDS011;12420;42.676;23.262;2022-08-11T10:56:14;3.75;;;3.45;;
12076;SDS011;12420;42.676;23.262;2022-08-11T10:59:00;4.45;;;4.18;;
12076;SDS011;12420;42.676;23.262;2022-08-11T11:01:30;4.45;;;4.15;;
12076;SDS011;12420;42.676;23.262;2022-08-11T11:03:59;4.10;;;3.80;;
12076;SDS011;12420;42.676;23.262;2022-08-11T11:06:31;4.40;;;4.10;;
12076;SDS011;12420;42.676;23.262;2022-08-11T11:09:02;4.47;;;4.18;;
12076;SDS011;12420;42.676;23.262;2022-08-11T11:11:31;4.85;;;4.45;;
12076;SDS011;12420;42.676;23.262;2022-08-11T11:14:19;8.00;;;4.47;;
12076;SDS011;12420;42.676;23.262;2022-08-11T11:17:06;5.07;;;4.50;;
12076;SDS011;12420;42.676;23.262;2022-08-11T11:19:56;5.15;;;4.75;;
12076;SDS011;12420;42.676;23.262;2022-08-11T11:22:25;4.80;;;4.20;;
12076;SDS011;12420;42.676;23.262;2022-08-11T11:25:13;4.38;;;3.97;;
12076;SDS011;12420;42.676;23.262;2022-08-11T11:27:53;4.80;;;4.35;;
12076;SDS011;12420;42.676;23.262;2022-08-11T11:30:34;4.50;;;4.10;;
12076;SDS011;12420;42.676;23.262;2022-08-11T11:33:10;4.57;;;4.28;;
12076;SDS011;12420;42.676;23.262;2022-08-11T11:35:48;4.68;;;4.28;;
12076;SDS011;12420;42.676;23.262;2022-08-11T11:38:24;4.32;;;3.97;;
12076;SDS011;12420;42.676;23.262;2022-08-11T11:40:51;4.63;;;3.60;;
12076;SDS011;12420;42.676;23.262;2022-08-11T11:43:32;4.53;;;4.10;;
12076;SDS011;12420;42.676;23.262;2022-08-11T11:46:00;4.82;;;4.40;;
12076;SDS011;12420;42.676;23.262;2022-08-11T11:48:29;6.93;;;3.92;;
12076;SDS011;12420;42.676;23.262;2022-08-11T11:50:57;6.85;;;4.45;;
12076;SDS011;12420;42.676;23.262;2022-08-11T11:53:25;4.75;;;4.45;;
12076;SDS011;12420;42.676;23.262;2022-08-11T11:55:52;5.68;;;4.25;;
12076;SDS011;12420;42.676;23.262;2022-08-11T11:58:19;5.47;;;4.97;;
12076;SDS011;12420;42.676;23.262;2022-08-11T12:01:04;4.60;;;4.20;;
12076;SDS011;12420;42.676;23.262;2022-08-11T12:03:50;6.15;;;4.40;;
12076;SDS011;12420;42.676;23.262;2022-08-11T12:06:19;4.88;;;3.80;;
12076;SDS011;12420;42.676;23.262;2022-08-11T12:08:47;4.25;;;3.90;;
12076;SDS011;12420;42.676;23.262;2022-08-11T12:11:18;4.10;;;3.78;;
12076;SDS011;12420;42.676;23.262;2022-08-11T12:14:05;4.22;;;3.80;;
12076;SDS011;12420;42.676;23.262;2022-08-11T12:16:36;3.88;;;3.60;;
12076;SDS011;12420;42.676;23.262;2022-08-11T12:19:07;4.70;;;4.20;;
12076;SDS011;12420;42.676;23.262;2022-08-11T12:21:37;4.90;;;4.40;;
12076;SDS011;12420;42.676;23.262;2022-08-11T12:24:26;4.65;;;4.35;;
12076;SDS011;12420;42.676;23.262;2022-08-11T12:27:11;5.78;;;3.88;;
12076;SDS011;12420;42.676;23.262;2022-08-11T12:29:48;4.32;;;4.00;;
12076;SDS011;12420;42.676;23.262;2022-08-11T12:32:16;4.13;;;3.83;;
12076;SDS011;12420;42.676;23.262;2022-08-11T12:34:48;4.80;;;4.40;;
12076;SDS011;12420;42.676;23.262;2022-08-11T12:37:20;4.32;;;3.85;;
12076;SDS011;12420;42.676;23.262;2022-08-11T12:39:49;3.80;;;3.60;;
12076;SDS011;12420;42.676;23.262;2022-08-11T12:42:40;4.40;;;3.33;;
12076;SDS011;12420;42.676;23.262;2022-08-11T12:45:26;4.60;;;3.65;;
12076;SDS011;12420;42.676;23.262;2022-08-11T12:47:58;4.07;;;3.67;;
12076;SDS011;12420;42.676;23.262;2022-08-11T12:50:49;5.68;;;3.45;;
12076;SDS011;12420;42.676;23.262;2022-08-11T12:53:37;5.50;;;3.30;;
12076;SDS011;12420;42.676;23.262;2022-08-11T12:56:10;3.78;;;3.17;;
12076;SDS011;12420;42.676;23.262;2022-08-11T12:58:56;3.35;;;3.15;;
12076;SDS011;12420;42.676;23.262;2022-08-11T13:01:41;4.65;;;3.47;;
12076;SDS011;12420;42.676;23.262;2022-08-11T13:04:27;3.60;;;3.40;;
12076;SDS011;12420;42.676;23.262;2022-08-11T13:07:16;3.45;;;3.15;;
12076;SDS011;12420;42.676;23.262;2022-08-11T13:09:43;3.20;;;2.92;;
12076;SDS011;12420;42.676;23.262;2022-08-11T13:12:12;3.08;;;2.95;;
12076;SDS011;12420;42.676;23.262;2022-08-11T13:14:56;4.50;;;3.10;;
12076;SDS011;12420;42.676;23.262;2022-08-11T13:17:25;5.57;;;3.63;;
12076;SDS011;12420;42.676;23.262;2022-08-11T13:19:53;3.70;;;3.40;;
12076;SDS011;12420;42.676;23.262;2022-08-11T13:22:24;7.28;;;3.50;;
12076;SDS011;12420;42.676;23.262;2022-08-11T13:24:51;3.72;;;3.42;;
12076;SDS011;12420;42.676;23.262;2022-08-11T13:27:19;4.75;;;3.58;;
12076;SDS011;12420;42.676;23.262;2022-08-11T13:29:47;4.93;;;3.30;;
12076;SDS011;12420;42.676;23.262;2022-08-11T13:32:17;3.33;;;3.03;;
12076;SDS011;12420;42.676;23.262;2022-08-11T13:34:50;3.60;;;3.30;;
12076;SDS011;12420;42.676;23.262;2022-08-11T13:37:17;3.30;;;3.00;;
12076;SDS011;12420;42.676;23.262;2022-08-11T13:39:47;4.60;;;3.20;;
12076;SDS011;12420;42.676;23.262;2022-08-11T13:42:15;3.80;;;3.30;;
12076;SDS011;12420;42.676;23.262;2022-08-11T13:44:45;3.40;;;3.10;;
12076;SDS011;12420;42.676;23.262;2022-08-11T13:47:13;3.60;;;3.40;;
12076;SDS011;12420;42.676;23.262;2022-08-11T13:49:46;3.67;;;3.17;;
12076;SDS011;12420;42.676;23.262;2022-08-11T13:52:13;3.40;;;3.20;;
12076;SDS011;12420;42.676;23.262;2022-08-11T13:54:44;5.20;;;3.20;;
12076;SDS011;12420;42.676;23.262;2022-08-11T13:57:14;3.47;;;3.05;;
12076;SDS011;12420;42.676;23.262;2022-08-11T13:59:43;3.38;;;3.08;;
12076;SDS011;12420;42.676;23.262;2022-08-11T14:02:12;3.30;;;3.10;;
12076;SDS011;12420;42.676;23.262;2022-08-11T14:04:42;5.00;;;3.15;;
12076;SDS011;12420;42.676;23.262;2022-08-11T14:07:16;4.78;;;3.10;;
12076;SDS011;12420;42.676;23.262;2022-08-11T14:09:47;3.90;;;2.97;;
12076;SDS011;12420;42.676;23.262;2022-08-11T14:12:20;3.55;;;3.25;;
12076;SDS011;12420;42.676;23.262;2022-08-11T14:15:09;4.18;;;3.17;;
12076;SDS011;12420;42.676;23.262;2022-08-11T14:17:44;3.38;;;3.10;;
12076;SDS011;12420;42.676;23.262;2022-08-11T14:20:18;3.55;;;3.25;;
12076;SDS011;12420;42.676;23.262;2022-08-11T14:22:46;4.28;;;2.90;;
12076;SDS011;12420;42.676;23.262;2022-08-11T14:25:15;6.60;;;3.05;;
12076;SDS011;12420;42.676;23.262;2022-08-11T14:27:45;3.50;;;3.20;;
12076;SDS011;12420;42.676;23.262;2022-08-11T14:30:15;3.60;;;3.30;;
12076;SDS011;12420;42.676;23.262;2022-08-11T14:32:56;3.45;;;3.13;;
12076;SDS011;12420;42.676;23.262;2022-08-11T14:35:26;2.97;;;2.88;;
12076;SDS011;12420;42.676;23.262;2022-08-11T14:37:54;3.60;;;3.38;;
12076;SDS011;12420;42.676;23.262;2022-08-11T14:40:24;3.40;;;3.20;;
12076;SDS011;12420;42.676;23.262;2022-08-11T14:43:10;3.30;;;3.00;;
12076;SDS011;12420;42.676;23.262;2022-08-11T14:45:54;3.60;;;3.40;;
12076;SDS011;12420;42.676;23.262;2022-08-11T14:48:39;4.05;;;3.58;;
12076;SDS011;12420;42.676;23.262;2022-08-11T14:51:06;6.57;;;3.60;;
12076;SDS011;12420;42.676;23.262;2022-08-11T14:53:33;3.60;;;3.40;;
12076;SDS011;12420;42.676;23.262;2022-08-11T14:56:00;3.85;;;3.50;;
12076;SDS011;12420;42.676;23.262;2022-08-11T14:58:46;4.07;;;3.70;;
12076;SDS011;12420;42.676;23.262;2022-08-11T15:01:13;6.53;;;3.70;;
12076;SDS011;12420;42.676;23.262;2022-08-11T15:03:54;4.65;;;3.92;;
12076;SDS011;12420;42.676;23.262;2022-08-11T15:06:21;4.22;;;3.90;;
12076;SDS011;12420;42.676;23.262;2022-08-11T15:08:52;6.30;;;3.70;;
12076;SDS011;12420;42.676;23.262;2022-08-11T15:11:21;4.82;;;3.92;;
12076;SDS011;12420;42.676;23.262;2022-08-11T15:14:09;4.10;;;3.85;;
12076;SDS011;12420;42.676;23.262;2022-08-11T15:16:40;4.35;;;3.95;;
12076;SDS011;12420;42.676;23.262;2022-08-11T15:19:27;3.92;;;3.63;;
12076;SDS011;12420;42.676;23.262;2022-08-11T15:21:57;5.88;;;3.83;;
12076;SDS011;12420;42.676;23.262;2022-08-11T15:24:41;4.05;;;3.78;;
12076;SDS011;12420;42.676;23.262;2022-08-11T15:27:10;3.83;;;3.60;;
12076;SDS011;12420;42.676;23.262;2022-08-11T15:29:58;3.58;;;3.38;;
12076;SDS011;12420;42.676;23.262;2022-08-11T15:32:45;3.85;;;3.42;;
12076;SDS011;12420;42.676;23.262;2022-08-11T15:35:31;4.35;;;3.67;;
12076;SDS011;12420;42.676;23.262;2022-08-11T15:38:19;4.40;;;3.88;;
12076;SDS011;12420;42.676;23.262;2022-08-11T15:40:48;3.83;;;3.38;;
12076;SDS011;12420;42.676;23.262;2022-08-11T15:43:34;3.97;;;3.67;;
12076;SDS011;12420;42.676;23.262;2022-08-11T15:46:29;5.65;;;3.63;;
12076;SDS011;12420;42.676;23.262;2022-08-11T15:49:00;3.53;;;3.28;;
12076;SDS011;12420;42.676;23.262;2022-08-11T15:51:32;3.60;;;3.40;;
12076;SDS011;12420;42.676;23.262;2022-08-11T15:54:02;3.72;;;3.45;;
12076;SDS011;12420;42.676;23.262;2022-08-11T15:56:33;3.80;;;3.47;;
12076;SDS011;12420;42.676;23.262;2022-08-11T15:59:02;3.75;;;3.50;;
12076;SDS011;12420;42.676;23.262;2022-08-11T16:01:51;3.50;;;3.30;;
12076;SDS011;12420;42.676;23.262;2022-08-11T16:04:37;3.95;;;3.60;;
12076;SDS011;12420;42.676;23.262;2022-08-11T16:07:09;5.00;;;3.55;;
12076;SDS011;12420;42.676;23.262;2022-08-11T16:09:38;3.72;;;3.42;;
12076;SDS011;12420;42.676;23.262;2022-08-11T16:12:12;4.10;;;3.38;;
12076;SDS011;12420;42.676;23.262;2022-08-11T16:14:42;3.83;;;3.53;;
12076;SDS011;12420;42.676;23.262;2022-08-11T16:17:32;3.67;;;3.38;;
12076;SDS011;12420;42.676;23.262;2022-08-11T16:20:03;5.45;;;3.70;;
12076;SDS011;12420;42.676;23.262;2022-08-11T16:22:32;4.10;;;3.47;;
12076;SDS011;12420;42.676;23.262;2022-08-11T16:25:03;3.78;;;3.45;;
12076;SDS011;12420;42.676;23.262;2022-08-11T16:27:34;6.18;;;3.45;;
12076;SDS011;12420;42.676;23.262;2022-08-11T16:30:04;3.47;;;3.28;;
12076;SDS011;12420;42.676;23.262;2022-08-11T16:32:34;5.75;;;3.30;;
12076;SDS011;12420;42.676;23.262;2022-08-11T16:35:05;4.03;;;3.13;;
12076;SDS011;12420;42.676;23.262;2022-08-11T16:37:52;5.70;;;3.65;;
12076;SDS011;12420;42.676;23.262;2022-08-11T16:40:41;3.42;;;3.15;;